Time;durP1;ratioP1;P1;durP2;ratioP2;P2;SDS_P1;SDS_P2;PMS_P1;PMS_P2;Temp;Humidity;BMP_temperature;BMP_pressure;BME280_temperature;BME280_humidity;BME280_pressure;Samples;Min_cycle;Max_cycle;Signal;HPM_P1;HPM_P2
2021/08/13 00:00:13;;;;;;;3.03;1.07;;;19.80;99.90;;;;;;5014318;28;20480;-74
2021/08/13 00:02:38;;;;;;;2.17;1.13;;;19.70;99.90;;;;;;5015857;28;20246;-74
2021/08/13 00:05:04;;;;;;;1.17;1.00;;;19.70;99.90;;;;;;5025429;28;20466;-74
2021/08/13 00:07:30;;;;;;;1.67;1.57;;;19.60;99.90;;;;;;5014033;28;20218;-74
2021/08/13 00:09:55;;;;;;;2.03;1.93;;;19.60;99.90;;;;;;5014840;28;20434;-74
2021/08/13 00:12:21;;;;;;;0.80;0.77;;;19.60;99.90;;;;;;4996472;28;20592;-74
2021/08/13 00:14:47;;;;;;;2.03;1.93;;;19.50;99.90;;;;;;5020422;28;20202;-74
2021/08/13 00:17:12;;;;;;;1.70;1.30;;;19.50;99.90;;;;;;5017199;28;20227;-74
2021/08/13 00:19:38;;;;;;;2.80;1.53;;;19.60;99.90;;;;;;5017013;28;20446;-74
2021/08/13 00:22:03;;;;;;;4.30;1.00;;;19.50;99.90;;;;;;4996064;28;20176;-75
2021/08/13 00:24:29;;;;;;;2.47;1.87;;;19.50;99.90;;;;;;5017312;28;20252;-74
2021/08/13 00:26:54;;;;;;;1.20;1.10;;;19.50;99.90;;;;;;5022153;28;21761;-74
2021/08/13 00:29:20;;;;;;;3.20;1.67;;;19.50;99.90;;;;;;5013286;28;20279;-74
2021/08/13 00:31:46;;;;;;;7.10;1.87;;;19.50;99.90;;;;;;5013602;28;20196;-74
2021/08/13 00:34:11;;;;;;;1.80;1.70;;;19.50;99.90;;;;;;5024238;28;20629;-74
2021/08/13 00:36:39;;;;;;;1.10;1.00;;;19.50;99.90;;;;;;5017664;28;20199;-74
2021/08/13 00:39:04;;;;;;;4.57;2.33;;;19.50;99.90;;;;;;5016648;28;20562;-74
2021/08/13 00:41:30;;;;;;;1.40;1.30;;;19.50;99.90;;;;;;5023184;28;20422;-74
2021/08/13 00:43:55;;;;;;;1.70;1.60;;;19.60;99.90;;;;;;5027890;28;20184;-74
2021/08/13 00:46:21;;;;;;;2.60;1.27;;;19.60;99.90;;;;;;5012923;28;21803;-74
2021/08/13 00:48:46;;;;;;;3.00;1.80;;;19.50;99.90;;;;;;5007836;28;20245;-74
2021/08/13 00:51:12;;;;;;;6.33;2.13;;;19.60;99.90;;;;;;5020054;28;20572;-74
2021/08/13 00:53:38;;;;;;;2.10;1.63;;;19.50;99.90;;;;;;5016475;28;20214;-74
2021/08/13 00:56:04;;;;;;;2.13;2.00;;;19.60;99.90;;;;;;5012786;28;20909;-74
2021/08/13 00:58:30;;;;;;;2.00;1.73;;;19.60;99.90;;;;;;5012963;28;20214;-74
2021/08/13 01:00:57;;;;;;;2.50;1.90;;;19.60;99.90;;;;;;5012945;28;20446;-74
2021/08/13 01:03:22;;;;;;;1.83;1.30;;;19.60;99.90;;;;;;5012999;28;20180;-74
2021/08/13 01:05:48;;;;;;;2.00;1.80;;;19.60;99.90;;;;;;5012733;28;20843;-74
2021/08/13 01:08:14;;;;;;;2.57;2.40;;;19.60;99.90;;;;;;5026710;28;20206;-74
2021/08/13 01:10:46;;;;;;;3.63;2.50;;;19.60;99.90;;;;;;5009401;28;20204;-74
2021/08/13 01:13:14;;;;;;;3.00;1.63;;;19.60;99.90;;;;;;5012774;28;20482;-74
2021/08/13 01:15:46;;;;;;;3.33;2.13;;;19.60;99.90;;;;;;5012210;28;20470;-74
2021/08/13 01:18:44;;;;;;;3.10;1.77;;;19.60;99.90;;;;;;5018183;28;20442;-74
2021/08/13 01:21:51;;;;;;;3.03;2.63;;;19.60;99.90;;;;;;5022827;28;20441;-74
2021/08/13 01:24:21;;;;;;;1.37;1.27;;;19.50;99.90;;;;;;5015475;28;20426;-74
2021/08/13 01:27:08;;;;;;;2.20;1.23;;;19.50;99.90;;;;;;5023141;28;20496;-74
2021/08/13 01:29:49;;;;;;;2.50;2.30;;;19.50;99.90;;;;;;5012562;28;20556;-74
2021/08/13 01:32:17;;;;;;;1.83;1.17;;;19.50;99.90;;;;;;5024522;28;20465;-74
2021/08/13 01:34:47;;;;;;;2.20;2.07;;;19.50;99.90;;;;;;5022176;28;20430;-74
2021/08/13 01:37:17;;;;;;;0.83;0.80;;;19.40;99.90;;;;;;5013271;28;20446;-74
2021/08/13 01:39:44;;;;;;;2.30;2.10;;;19.40;99.90;;;;;;5030102;28;20464;-74
2021/08/13 01:42:10;;;;;;;2.17;1.30;;;19.40;99.90;;;;;;5025047;28;20438;-74
2021/08/13 01:44:37;;;;;;;2.23;2.10;;;19.30;99.90;;;;;;5032069;28;20412;-74
2021/08/13 01:47:03;;;;;;;3.80;1.53;;;19.30;99.90;;;;;;5029947;28;20532;-74
2021/08/13 01:49:31;;;;;;;1.37;1.27;;;19.30;99.90;;;;;;5032118;28;20924;-74
2021/08/13 01:52:00;;;;;;;1.23;0.90;;;19.20;99.90;;;;;;5008037;28;20486;-74
2021/08/13 01:54:27;;;;;;;1.47;1.37;;;19.20;99.90;;;;;;5015624;28;20870;-74
2021/08/13 01:56:54;;;;;;;2.90;2.70;;;19.20;99.90;;;;;;5023705;28;20959;-74
2021/08/13 01:59:21;;;;;;;3.67;1.43;;;19.20;99.90;;;;;;5022216;28;20430;-74
2021/08/13 02:01:47;;;;;;;3.33;1.57;;;19.10;99.90;;;;;;5029063;28;20434;-74
2021/08/13 02:04:19;;;;;;;1.63;1.53;;;19.10;99.90;;;;;;5026876;28;20431;-74
2021/08/13 02:06:47;;;;;;;3.27;1.67;;;19.00;99.90;;;;;;5013684;28;20451;-74
2021/08/13 02:09:13;;;;;;;3.57;3.27;;;19.00;99.90;;;;;;5012100;28;20429;-74
2021/08/13 02:12:07;;;;;;;2.00;1.90;;;19.00;99.90;;;;;;5016359;28;20463;-71
2021/08/13 02:15:37;;;;;;;3.97;2.10;;;19.00;99.90;;;;;;5034475;28;20427;-69
2021/08/13 02:19:00;;;;;;;8.00;2.00;;;19.00;99.90;;;;;;4987054;28;20450;-72
2021/08/13 02:21:30;;;;;;;3.07;2.87;;;19.00;99.90;;;;;;4960657;28;20453;-74
2021/08/13 02:23:55;;;;;;;1.93;1.83;;;19.00;99.90;;;;;;5021741;28;20419;-73
2021/08/13 02:26:21;;;;;;;1.93;1.80;;;18.90;99.90;;;;;;5014892;28;20434;-73
2021/08/13 02:28:46;;;;;;;1.20;1.10;;;19.00;99.90;;;;;;5026438;28;20558;-73
2021/08/13 02:31:12;;;;;;;1.80;1.70;;;18.90;99.90;;;;;;5029783;28;20211;-73
2021/08/13 02:33:37;;;;;;;1.77;1.23;;;18.90;99.90;;;;;;5024415;28;20183;-74
2021/08/13 02:36:12;;;;;;;1.60;1.50;;;19.00;99.90;;;;;;5015106;28;20203;-73
2021/08/13 02:38:53;;;;;;;3.17;1.50;;;19.00;99.90;;;;;;5014377;28;20172;-74
2021/08/13 02:41:20;;;;;;;3.43;2.63;;;19.00;99.90;;;;;;5015610;28;20765;-74
2021/08/13 02:43:56;;;;;;;4.23;3.10;;;19.00;99.90;;;;;;5015775;28;20546;-74
2021/08/13 02:46:23;;;;;;;1.80;1.70;;;18.90;99.90;;;;;;5015261;28;20453;-74
2021/08/13 02:49:30;;;;;;;4.17;1.97;;;19.00;99.90;;;;;;5035889;28;20426;-71
2021/08/13 02:52:24;;;;;;;4.00;1.50;;;19.00;99.90;;;;;;4998921;28;20516;-72
2021/08/13 02:54:50;;;;;;;3.30;2.70;;;18.90;99.90;;;;;;5025011;28;20569;-72
2021/08/13 02:57:20;;;;;;;2.00;1.90;;;18.90;99.90;;;;;;5016512;28;20444;-74
2021/08/13 02:59:47;;;;;;;2.53;2.27;;;18.90;99.90;;;;;;5033155;28;20474;-73
2021/08/13 03:02:13;;;;;;;2.50;1.63;;;18.80;99.90;;;;;;5017134;28;20422;-72
2021/08/13 03:04:40;;;;;;;1.40;1.30;;;18.80;99.90;;;;;;5035028;28;20398;-71
2021/08/13 03:07:06;;;;;;;3.03;2.57;;;18.80;99.90;;;;;;5024523;28;20966;-72
2021/08/13 03:09:32;;;;;;;2.83;1.93;;;18.70;99.90;;;;;;5019161;28;20427;-73
2021/08/13 03:12:28;;;;;;;1.53;1.43;;;18.70;99.90;;;;;;5026970;28;20227;-72
2021/08/13 03:15:33;;;;;;;1.17;1.00;;;18.70;99.90;;;;;;5039162;28;20515;-70
2021/08/13 03:18:23;;;;;;;1.30;1.13;;;18.60;99.90;;;;;;5021855;28;20460;-73
2021/08/13 03:21:10;;;;;;;1.63;1.53;;;18.50;99.90;;;;;;5021944;28;20532;-74
2021/08/13 03:23:40;;;;;;;6.13;1.80;;;18.60;99.90;;;;;;5032448;28;20423;-74
2021/08/13 03:26:09;;;;;;;2.00;1.43;;;18.60;99.90;;;;;;5027133;28;20465;-74
2021/08/13 03:28:36;;;;;;;5.70;2.50;;;18.60;99.90;;;;;;5033092;28;20426;-74
2021/08/13 03:31:02;;;;;;;1.33;1.20;;;18.70;99.90;;;;;;5028144;28;20458;-74
2021/08/13 03:33:27;;;;;;;2.33;2.20;;;18.70;99.90;;;;;;5015841;28;20414;-74
2021/08/13 03:35:54;;;;;;;1.77;1.67;;;18.70;99.90;;;;;;5014345;28;20453;-74
2021/08/13 03:38:20;;;;;;;2.47;2.27;;;18.70;99.90;;;;;;5015032;28;20538;-73
2021/08/13 03:40:45;;;;;;;1.53;1.03;;;18.70;99.90;;;;;;5023870;28;20419;-74
2021/08/13 03:44:04;;;;;;;5.80;1.57;;;18.70;99.90;;;;;;5044190;28;20219;-71
2021/08/13 03:46:37;;;;;;;3.23;1.63;;;18.70;99.90;;;;;;5023168;28;20196;-74
2021/08/13 03:49:03;;;;;;;1.40;1.33;;;18.70;99.90;;;;;;5022728;28;20441;-72
2021/08/13 03:51:28;;;;;;;2.80;2.17;;;18.70;99.90;;;;;;5025647;28;20210;-74
2021/08/13 03:53:54;;;;;;;1.20;1.10;;;18.60;99.90;;;;;;5031495;28;20198;-71
2021/08/13 03:56:21;;;;;;;2.60;1.53;;;18.60;99.90;;;;;;5014421;28;20196;-71
2021/08/13 03:58:53;;;;;;;1.57;1.47;;;18.60;99.90;;;;;;5039393;28;20262;-72
2021/08/13 04:01:18;;;;;;;3.23;1.60;;;18.60;99.90;;;;;;5019595;28;20454;-74
2021/08/13 04:03:44;;;;;;;3.33;2.63;;;18.60;99.90;;;;;;5014040;28;20423;-74
2021/08/13 04:06:10;;;;;;;1.20;1.10;;;18.70;99.90;;;;;;5017369;28;20650;-72
2021/08/13 04:08:35;;;;;;;1.10;0.90;;;18.60;99.90;;;;;;5016159;28;20267;-71
2021/08/13 04:11:02;;;;;;;1.00;0.90;;;18.60;99.90;;;;;;5038487;28;20438;-71
2021/08/13 04:14:26;;;;;;;1.33;1.00;;;18.60;99.90;;;;;;5054417;28;20210;-74
2021/08/13 04:20:35;;;;;;;3.00;2.80;;;18.60;99.90;;;;;;4972391;28;20455;-73
2021/08/13 04:23:00;;;;;;;1.63;1.20;;;18.60;99.90;;;;;;4994271;28;20423;-74
2021/08/13 04:25:26;;;;;;;3.50;1.40;;;18.60;99.90;;;;;;4993908;28;20215;-74
2021/08/13 04:27:51;;;;;;;1.67;0.93;;;18.60;99.90;;;;;;5001715;28;20175;-74
2021/08/13 04:30:17;;;;;;;1.30;0.87;;;18.60;99.90;;;;;;5013656;28;20637;-72
2021/08/13 04:32:42;;;;;;;4.60;1.67;;;18.60;99.90;;;;;;4994970;28;20217;-73
2021/08/13 04:35:09;;;;;;;1.17;1.03;;;18.60;99.90;;;;;;5011526;28;20180;-72
2021/08/13 04:37:36;;;;;;;1.57;1.23;;;18.60;99.90;;;;;;5010631;28;20183;-73
2021/08/13 04:40:09;;;;;;;1.40;1.30;;;18.60;99.90;;;;;;5007227;28;20411;-73
2021/08/13 04:42:34;;;;;;;1.37;1.27;;;18.60;99.90;;;;;;5018810;28;20185;-71
2021/08/13 04:45:00;;;;;;;2.70;2.30;;;18.60;99.90;;;;;;5012593;28;20466;-73
2021/08/13 04:47:26;;;;;;;1.77;1.67;;;18.60;99.90;;;;;;5012489;28;20276;-74
2021/08/13 04:49:51;;;;;;;2.47;1.20;;;18.70;99.90;;;;;;4992826;28;20205;-74
2021/08/13 04:52:18;;;;;;;0.90;0.80;;;18.70;99.90;;;;;;4996105;28;20212;-71
2021/08/13 04:54:48;;;;;;;3.30;1.90;;;18.60;99.90;;;;;;5009093;28;20226;-71
2021/08/13 04:57:14;;;;;;;1.43;1.27;;;18.60;99.90;;;;;;4993600;28;20498;-73
2021/08/13 04:59:40;;;;;;;2.40;1.27;;;18.70;99.90;;;;;;4993431;28;20420;-74
2021/08/13 05:02:05;;;;;;;2.70;2.50;;;18.70;99.90;;;;;;5010381;28;20418;-73
2021/08/13 05:04:31;;;;;;;1.93;1.83;;;18.70;99.90;;;;;;4998886;28;20212;-74
2021/08/13 05:06:56;;;;;;;1.67;1.57;;;18.80;99.90;;;;;;4993330;28;20196;-74
2021/08/13 05:10:05;;;;;;;5.00;2.00;;;18.80;99.90;;;;;;5012571;28;20188;-70
2021/08/13 05:13:11;;;;;;;2.10;2.00;;;18.90;99.90;;;;;;4994526;28;20200;-73
2021/08/13 05:18:24;;;;;;;1.63;1.53;;;19.00;99.90;;;;;;4954025;28;21073;-73
2021/08/13 05:20:49;;;;;;;4.77;1.90;;;19.00;99.90;;;;;;5022092;28;20438;-74
2021/08/13 05:23:15;;;;;;;2.60;1.30;;;19.10;99.90;;;;;;5014394;28;20168;-74
2021/08/13 05:26:15;;;;;;;2.40;1.93;;;19.20;99.90;;;;;;5028618;28;20251;-74
2021/08/13 05:29:06;;;;;;;1.63;1.53;;;19.20;99.90;;;;;;5031169;28;20223;-72
2021/08/13 05:32:03;;;;;;;1.00;0.90;;;19.30;99.90;;;;;;5040146;28;20451;-72
2021/08/13 05:35:13;;;;;;;3.03;1.70;;;19.30;99.90;;;;;;5055840;28;20394;-72
2021/08/13 05:37:39;;;;;;;1.90;1.23;;;19.50;99.90;;;;;;5019928;28;20522;-74
2021/08/13 05:40:06;;;;;;;2.00;1.50;;;19.60;99.90;;;;;;4995175;28;20977;-74
2021/08/13 05:42:32;;;;;;;1.87;1.20;;;19.70;99.90;;;;;;5013520;28;20423;-74
2021/08/13 05:44:57;;;;;;;1.67;1.57;;;19.80;99.90;;;;;;5012747;28;20999;-72
2021/08/13 05:47:23;;;;;;;2.40;1.00;;;19.90;99.90;;;;;;5015691;28;20223;-72
2021/08/13 05:49:49;;;;;;;8.17;1.80;;;19.90;99.90;;;;;;5019154;28;20195;-73
2021/08/13 05:52:15;;;;;;;1.33;0.97;;;20.00;99.90;;;;;;5012558;28;20493;-71
2021/08/13 05:54:40;;;;;;;1.10;0.80;;;20.00;99.90;;;;;;5023468;28;20171;-73
2021/08/13 05:57:06;;;;;;;2.70;1.33;;;20.10;99.90;;;;;;5030146;28;20589;-74
2021/08/13 05:59:32;;;;;;;4.93;2.03;;;20.20;99.90;;;;;;5021931;28;20206;-74
2021/08/13 06:01:57;;;;;;;1.93;1.37;;;20.50;99.90;;;;;;5023795;28;20660;-74
2021/08/13 06:04:23;;;;;;;2.80;1.30;;;20.70;99.90;;;;;;5030345;28;20179;-74
2021/08/13 06:06:48;;;;;;;1.60;1.50;;;21.00;99.90;;;;;;5018356;28;20192;-72
2021/08/13 06:09:14;;;;;;;2.40;1.30;;;21.20;99.90;;;;;;5029003;28;20186;-75
2021/08/13 06:11:40;;;;;;;1.27;1.17;;;21.40;99.90;;;;;;5030069;28;20211;-75
2021/08/13 06:14:05;;;;;;;1.67;1.03;;;21.70;99.90;;;;;;5030293;28;20422;-75
2021/08/13 06:16:31;;;;;;;2.33;2.13;;;21.90;99.90;;;;;;5029795;28;20270;-75
2021/08/13 06:18:57;;;;;;;1.30;1.20;;;22.10;99.90;;;;;;5014745;28;20634;-75
2021/08/13 06:21:22;;;;;;;1.57;1.47;;;22.30;99.90;;;;;;5007155;28;20303;-75
2021/08/13 06:23:48;;;;;;;1.33;1.20;;;22.50;99.90;;;;;;5021043;28;20257;-75
2021/08/13 06:26:13;;;;;;;1.77;1.30;;;22.60;99.90;;;;;;5029428;28;20278;-75
2021/08/13 06:28:39;;;;;;;1.87;1.50;;;22.70;99.90;;;;;;5022564;28;20536;-74
2021/08/13 06:31:05;;;;;;;2.93;1.57;;;22.80;99.90;;;;;;5026159;28;20203;-75
2021/08/13 06:33:30;;;;;;;1.37;1.27;;;22.90;99.90;;;;;;5022814;28;20169;-74
2021/08/13 06:35:56;;;;;;;9.03;1.43;;;22.90;99.90;;;;;;5011602;28;20200;-74
2021/08/13 06:38:22;;;;;;;2.23;1.37;;;23.10;99.90;;;;;;5011961;28;20180;-74
2021/08/13 06:40:48;;;;;;;6.30;2.50;;;23.10;99.90;;;;;;5017642;28;20500;-74
2021/08/13 06:43:14;;;;;;;2.90;2.70;;;23.00;99.90;;;;;;5029600;28;20259;-74
2021/08/13 06:45:45;;;;;;;1.87;1.70;;;22.80;99.90;;;;;;5035383;28;20203;-74
2021/08/13 06:48:21;;;;;;;1.80;1.70;;;22.70;99.90;;;;;;5051659;28;20206;-74
2021/08/13 06:50:47;;;;;;;3.70;2.50;;;22.50;99.90;;;;;;5021969;28;20871;-72
2021/08/13 06:53:13;;;;;;;1.80;1.70;;;22.40;99.90;;;;;;5030940;28;20472;-75
2021/08/13 06:55:38;;;;;;;2.30;2.03;;;22.30;99.90;;;;;;5029465;28;20215;-73
2021/08/13 06:58:05;;;;;;;1.63;1.53;;;22.30;99.90;;;;;;5037315;28;20161;-74
2021/08/13 07:00:31;;;;;;;2.80;1.80;;;22.10;99.90;;;;;;5043139;28;20198;-76
2021/08/13 07:03:03;;;;;;;8.80;2.50;;;22.00;99.90;;;;;;5042158;28;20427;-74
2021/08/13 07:05:29;;;;;;;1.70;1.60;;;22.00;99.90;;;;;;5033314;28;20192;-75
2021/08/13 07:07:55;;;;;;;2.60;2.40;;;22.00;99.90;;;;;;5042999;28;20457;-75
2021/08/13 07:10:20;;;;;;;4.50;3.70;;;21.90;99.90;;;;;;5049868;28;20168;-76
2021/08/13 07:12:46;;;;;;;5.70;2.50;;;21.90;99.90;;;;;;5050280;28;20176;-74
2021/08/13 07:15:13;;;;;;;3.13;2.83;;;21.90;99.90;;;;;;5048019;28;20449;-74
2021/08/13 07:17:39;;;;;;;4.50;4.17;;;22.00;99.90;;;;;;5024106;28;20239;-73
2021/08/13 07:20:07;;;;;;;4.00;2.80;;;22.00;99.90;;;;;;5015013;28;20430;-73
2021/08/13 07:22:32;;;;;;;3.13;1.83;;;21.90;99.90;;;;;;5020869;28;20861;-76
2021/08/13 07:24:59;;;;;;;3.17;2.90;;;22.00;99.90;;;;;;5010991;28;20430;-76
2021/08/13 07:27:27;;;;;;;3.43;2.53;;;22.30;99.90;;;;;;5036908;28;20199;-73
2021/08/13 07:29:52;;;;;;;3.50;2.37;;;22.60;99.90;;;;;;5016235;28;20766;-73
2021/08/13 07:32:18;;;;;;;2.80;2.10;;;23.00;99.90;;;;;;5020676;28;20461;-73
2021/08/13 07:34:43;;;;;;;2.57;2.00;;;23.30;99.90;;;;;;5019556;28;20189;-72
2021/08/13 07:37:09;;;;;;;3.97;3.60;;;23.60;99.90;;;;;;5015523;28;20200;-72
2021/08/13 07:39:34;;;;;;;2.97;2.67;;;24.00;99.90;;;;;;5017445;28;20219;-73
2021/08/13 07:42:00;;;;;;;3.97;2.73;;;24.30;99.90;;;;;;5026926;28;20183;-74
2021/08/13 07:44:25;;;;;;;4.20;3.83;;;24.40;99.90;;;;;;5024665;28;20666;-72
2021/08/13 07:46:51;;;;;;;4.50;1.97;;;24.60;99.90;;;;;;5031378;28;20286;-72
2021/08/13 07:49:16;;;;;;;3.87;3.50;;;24.80;99.90;;;;;;5024865;28;20550;-73
2021/08/13 07:51:42;;;;;;;5.30;3.60;;;24.70;99.90;;;;;;5020299;28;20661;-75
2021/08/13 07:54:08;;;;;;;3.40;2.33;;;24.90;99.90;;;;;;5030639;28;20178;-75
2021/08/13 07:56:33;;;;;;;4.53;3.20;;;24.90;99.90;;;;;;5020115;28;20224;-74
2021/08/13 07:58:59;;;;;;;3.10;2.37;;;24.80;99.90;;;;;;5031428;28;20206;-74
2021/08/13 08:01:24;;;;;;;5.50;3.87;;;24.80;99.90;;;;;;5032435;28;20194;-74
2021/08/13 08:03:50;;;;;;;3.90;2.10;;;24.80;99.90;;;;;;5029963;28;20179;-75
2021/08/13 08:06:15;;;;;;;3.60;3.00;;;25.10;99.90;;;;;;5021644;28;20210;-75
2021/08/13 08:08:41;;;;;;;2.93;2.73;;;25.40;99.90;;;;;;5026635;28;20184;-75
2021/08/13 08:11:06;;;;;;;7.77;3.53;;;25.20;99.90;;;;;;5015755;28;20202;-75
2021/08/13 08:13:32;;;;;;;4.57;4.17;;;25.20;99.90;;;;;;5032230;28;20172;-75
2021/08/13 08:15:58;;;;;;;6.93;3.03;;;25.10;99.90;;;;;;5014934;28;20223;-75
2021/08/13 08:18:23;;;;;;;4.30;2.73;;;25.00;99.90;;;;;;5014055;28;20165;-75
2021/08/13 08:20:50;;;;;;;6.27;3.80;;;24.90;99.90;;;;;;5014894;28;20253;-75
2021/08/13 08:23:16;;;;;;;2.83;2.60;;;24.90;99.90;;;;;;5026994;28;20172;-75
2021/08/13 08:25:41;;;;;;;6.60;3.67;;;24.80;99.90;;;;;;5033268;28;20505;-75
2021/08/13 08:28:07;;;;;;;4.00;3.37;;;25.00;99.90;;;;;;5025881;28;20708;-75
2021/08/13 08:30:33;;;;;;;4.13;2.77;;;25.30;99.90;;;;;;5033359;28;20211;-75
2021/08/13 08:32:59;;;;;;;7.40;5.97;;;25.60;99.90;;;;;;5033122;28;20410;-75
2021/08/13 08:35:25;;;;;;;4.80;4.40;;;25.50;99.90;;;;;;5032881;28;20176;-75
2021/08/13 08:37:52;;;;;;;3.47;3.00;;;25.60;99.90;;;;;;5029162;28;20167;-75
2021/08/13 08:40:42;;;;;;;7.03;2.70;;;25.60;99.90;;;;;;5024199;28;20203;-76
2021/08/13 08:43:09;;;;;;;4.00;2.87;;;25.80;99.90;;;;;;5015356;28;20421;-76
2021/08/13 08:45:37;;;;;;;2.50;2.30;;;26.00;99.90;;;;;;5031226;28;20841;-75
2021/08/13 08:48:08;;;;;;;3.40;2.77;;;25.80;99.90;;;;;;5031494;28;20414;-75
2021/08/13 08:50:37;;;;;;;3.47;3.17;;;25.70;99.90;;;;;;5026566;28;20549;-75
2021/08/13 08:53:08;;;;;;;3.70;3.50;;;25.60;99.90;;;;;;5024116;28;20778;-75
2021/08/13 08:55:34;;;;;;;6.03;4.43;;;25.50;99.90;;;;;;5014348;28;20435;-75
2021/08/13 08:58:01;;;;;;;5.67;3.70;;;25.30;99.90;;;;;;5021242;28;20437;-75
2021/08/13 09:00:27;;;;;;;8.13;5.57;;;25.20;99.90;;;;;;5030698;28;20496;-75
2021/08/13 09:02:54;;;;;;;6.53;3.60;;;25.20;99.90;;;;;;5023474;28;20430;-75
2021/08/13 09:05:20;;;;;;;2.23;2.00;;;25.00;99.90;;;;;;4997511;28;20176;-75
2021/08/13 09:07:46;;;;;;;2.63;2.23;;;25.10;99.90;;;;;;5013178;28;20422;-75
2021/08/13 09:10:12;;;;;;;1.80;1.30;;;25.30;99.90;;;;;;5013993;28;20275;-75
2021/08/13 09:12:40;;;;;;;3.60;2.97;;;25.30;99.90;;;;;;5030811;28;20426;-75
2021/08/13 09:15:24;;;;;;;5.50;3.23;;;25.40;99.90;;;;;;5021658;28;20514;-75
2021/08/13 09:18:13;;;;;;;2.63;2.40;;;25.80;99.90;;;;;;5013317;28;20421;-75
2021/08/13 09:20:41;;;;;;;2.33;2.10;;;26.10;99.90;;;;;;5013234;28;20793;-75
2021/08/13 09:23:07;;;;;;;3.50;2.30;;;26.50;99.90;;;;;;5012727;28;20423;-75
2021/08/13 09:25:32;;;;;;;2.53;2.33;;;27.00;99.90;;;;;;5012426;28;20442;-75
2021/08/13 09:27:58;;;;;;;3.27;2.00;;;27.40;99.90;;;;;;5023736;28;20171;-76
2021/08/13 09:30:24;;;;;;;2.60;2.40;;;27.60;99.90;;;;;;5029434;28;20228;-75
2021/08/13 09:33:03;;;;;;;2.30;2.00;;;27.70;99.90;;;;;;5031862;28;20175;-75
2021/08/13 09:35:41;;;;;;;4.43;3.07;;;27.90;99.90;;;;;;5013741;28;20197;-76
2021/08/13 09:38:11;;;;;;;1.80;1.67;;;27.70;99.90;;;;;;5013583;28;20490;-75
2021/08/13 09:40:42;;;;;;;2.13;1.93;;;27.90;99.90;;;;;;4998493;28;20443;-75
2021/08/13 09:43:08;;;;;;;2.03;1.63;;;28.40;99.90;;;;;;5016782;28;20465;-75
2021/08/13 09:45:34;;;;;;;1.37;1.27;;;28.80;99.90;;;;;;4997778;28;20454;-76
2021/08/13 09:47:59;;;;;;;1.83;1.47;;;29.10;99.90;;;;;;5015523;28;20233;-75
2021/08/13 09:50:41;;;;;;;2.97;1.70;;;29.20;99.90;;;;;;5016010;28;20430;-75
2021/08/13 09:53:12;;;;;;;1.70;1.33;;;29.40;99.90;;;;;;5013310;28;20685;-76
2021/08/13 09:55:38;;;;;;;1.67;1.57;;;29.60;99.90;;;;;;5011709;28;20497;-74
2021/08/13 09:58:05;;;;;;;2.80;2.23;;;29.60;99.90;;;;;;5016674;28;20454;-76
2021/08/13 10:00:43;;;;;;;1.93;1.60;;;29.60;99.90;;;;;;4996749;28;20438;-76
2021/08/13 10:03:10;;;;;;;2.90;1.30;;;29.80;99.90;;;;;;5027977;28;20433;-76
2021/08/13 10:05:36;;;;;;;1.40;1.10;;;30.00;99.90;;;;;;5026014;28;20450;-76
2021/08/13 10:08:03;;;;;;;1.77;1.30;;;30.40;99.90;;;;;;5014967;28;20426;-75
2021/08/13 10:10:40;;;;;;;1.63;1.53;;;30.60;99.90;;;;;;5003852;28;20184;-75
2021/08/13 10:13:08;;;;;;;1.60;1.50;;;30.60;99.90;;;;;;5029138;28;20437;-76
2021/08/13 10:15:34;;;;;;;1.67;1.27;;;30.80;99.90;;;;;;5021327;28;20820;-76
2021/08/13 10:18:03;;;;;;;1.27;1.13;;;31.00;99.90;;;;;;5028963;28;20398;-75
2021/08/13 10:20:31;;;;;;;1.20;0.90;;;31.00;99.90;;;;;;5015640;28;20854;-75
2021/08/13 10:22:57;;;;;;;1.83;1.50;;;31.30;99.90;;;;;;5001652;28;20435;-75
2021/08/13 10:25:23;;;;;;;1.53;1.13;;;31.40;99.90;;;;;;4998151;28;20426;-75
2021/08/13 10:27:50;;;;;;;1.43;1.17;;;31.10;99.90;;;;;;5023684;28;20183;-75
2021/08/13 10:30:16;;;;;;;1.27;1.17;;;31.10;99.90;;;;;;5011911;28;20430;-76
2021/08/13 10:32:44;;;;;;;1.10;0.83;;;31.00;99.90;;;;;;5012100;28;20474;-75
2021/08/13 10:35:10;;;;;;;1.87;1.10;;;31.00;99.90;;;;;;5013594;28;20418;-75
2021/08/13 10:37:37;;;;;;;1.87;1.77;;;30.90;99.90;;;;;;5031658;28;20417;-76
2021/08/13 10:40:03;;;;;;;1.07;0.97;;;30.70;99.90;;;;;;5016251;28;20187;-76
2021/08/13 10:42:29;;;;;;;1.17;0.90;;;30.70;99.90;;;;;;5012529;28;20434;-75
2021/08/13 10:45:00;;;;;;;1.43;1.00;;;30.80;99.90;;;;;;5012611;28;20470;-75
2021/08/13 10:47:30;;;;;;;1.63;1.20;;;30.90;99.90;;;;;;5015647;28;20892;-76
2021/08/13 10:49:58;;;;;;;2.50;1.20;;;30.90;99.90;;;;;;5021382;28;20427;-76
2021/08/13 10:52:38;;;;;;;1.47;1.27;;;31.10;99.90;;;;;;5015460;28;20532;-76
2021/08/13 10:55:08;;;;;;;1.10;1.00;;;31.10;99.90;;;;;;5018032;28;20429;-76
2021/08/13 10:57:48;;;;;;;2.27;1.33;;;31.30;99.90;;;;;;5016402;28;20487;-75
2021/08/13 11:00:15;;;;;;;1.43;1.33;;;31.40;99.90;;;;;;5025058;28;20512;-75
2021/08/13 11:03:00;;;;;;;1.77;1.33;;;31.00;99.90;;;;;;5017538;28;20425;-75
2021/08/13 11:05:58;;;;;;;0.93;0.80;;;31.00;99.90;;;;;;5023393;28;20925;-75
2021/08/13 11:08:45;;;;;;;1.00;0.90;;;30.80;99.90;;;;;;5012723;28;20452;-75
2021/08/13 11:11:15;;;;;;;1.30;0.90;;;30.60;99.90;;;;;;5014113;28;20561;-75
2021/08/13 11:13:42;;;;;;;1.20;1.10;;;30.50;99.90;;;;;;5016969;28;20446;-76
2021/08/13 11:16:31;;;;;;;1.30;1.20;;;30.60;99.90;;;;;;5015685;28;20524;-75
2021/08/13 11:19:01;;;;;;;0.97;0.80;;;30.60;99.90;;;;;;5034079;28;20433;-75
2021/08/13 11:21:32;;;;;;;1.33;1.20;;;30.50;99.90;;;;;;5032521;28;20446;-75
2021/08/13 11:24:02;;;;;;;0.80;0.70;;;30.40;99.90;;;;;;5021698;28;20438;-76
2021/08/13 11:26:47;;;;;;;0.90;0.70;;;30.50;99.90;;;;;;4999142;28;21144;-75
2021/08/13 11:29:28;;;;;;;2.50;1.03;;;30.70;99.90;;;;;;5031336;28;20418;-76
2021/08/13 11:31:58;;;;;;;1.00;0.90;;;30.90;99.90;;;;;;5033555;28;20458;-76
2021/08/13 11:34:42;;;;;;;0.90;0.70;;;31.20;99.90;;;;;;5015109;28;20472;-76
2021/08/13 11:37:08;;;;;;;1.70;1.23;;;31.30;99.90;;;;;;5014116;28;20509;-75
2021/08/13 11:39:38;;;;;;;1.20;0.87;;;31.50;99.90;;;;;;5014958;28;20403;-75
2021/08/13 11:42:06;;;;;;;1.00;0.83;;;31.90;99.90;;;;;;5011555;28;20811;-75
2021/08/13 11:44:33;;;;;;;1.20;0.73;;;31.90;99.90;;;;;;5015618;28;20491;-76
2021/08/13 11:46:59;;;;;;;1.40;1.00;;;31.80;99.90;;;;;;5018889;28;20450;-75
2021/08/13 11:49:25;;;;;;;1.00;0.90;;;31.50;99.90;;;;;;5007355;28;20434;-75
2021/08/13 11:51:51;;;;;;;0.97;0.87;;;31.40;99.90;;;;;;5022524;28;20470;-75
2021/08/13 11:54:28;;;;;;;0.80;0.60;;;31.20;99.90;;;;;;5017611;28;20928;-75
2021/08/13 11:57:10;;;;;;;1.00;0.90;;;31.20;99.90;;;;;;5013164;28;20227;-76
2021/08/13 11:59:36;;;;;;;0.80;0.53;;;31.00;99.90;;;;;;5013248;28;20430;-76
2021/08/13 12:02:01;;;;;;;1.00;0.90;;;30.90;99.90;;;;;;5015488;28;20510;-75
2021/08/13 12:04:27;;;;;;;1.23;1.10;;;30.60;99.90;;;;;;5015528;28;20191;-76
2021/08/13 12:07:11;;;;;;;0.87;0.70;;;30.50;99.90;;;;;;5012941;28;20196;-75
2021/08/13 12:09:46;;;;;;;1.10;1.00;;;30.40;99.90;;;;;;5018248;28;20180;-74
2021/08/13 12:12:13;;;;;;;1.20;0.70;;;30.50;99.90;;;;;;5014140;28;20515;-75
2021/08/13 12:14:46;;;;;;;1.93;1.10;;;30.60;99.90;;;;;;5014128;28;20403;-76
2021/08/13 12:17:13;;;;;;;1.43;0.80;;;30.90;99.90;;;;;;5021652;28;20501;-75
2021/08/13 12:19:38;;;;;;;1.00;0.80;;;30.70;99.90;;;;;;5026944;28;20441;-76
2021/08/13 12:22:07;;;;;;;1.60;0.70;;;31.00;99.90;;;;;;5025369;28;20940;-75
2021/08/13 12:24:40;;;;;;;0.90;0.70;;;30.80;99.90;;;;;;5013740;28;20180;-75
2021/08/13 12:27:08;;;;;;;1.40;0.90;;;31.00;99.90;;;;;;5018962;28;20446;-76
2021/08/13 12:29:38;;;;;;;1.40;1.10;;;30.80;99.90;;;;;;5033521;28;20908;-75
2021/08/13 12:32:06;;;;;;;1.17;0.93;;;30.80;99.90;;;;;;5031607;28;20504;-76
2021/08/13 12:34:34;;;;;;;1.23;1.00;;;30.90;99.90;;;;;;5015697;28;20417;-75
2021/08/13 12:37:04;;;;;;;1.00;0.80;;;30.50;99.90;;;;;;5015073;28;20509;-75
2021/08/13 12:39:32;;;;;;;1.07;0.73;;;30.30;99.90;;;;;;5013538;28;20431;-75
2021/08/13 12:41:58;;;;;;;0.80;0.60;;;30.40;99.90;;;;;;5013564;28;20411;-76
2021/08/13 12:44:23;;;;;;;1.30;1.20;;;30.60;99.90;;;;;;5021038;28;20915;-76
2021/08/13 12:46:51;;;;;;;1.10;1.00;;;30.80;99.90;;;;;;5025553;28;20196;-75
2021/08/13 12:49:18;;;;;;;1.00;0.77;;;30.90;99.90;;;;;;4995790;28;20258;-75
2021/08/13 12:51:44;;;;;;;0.80;0.60;;;31.30;99.90;;;;;;5017077;28;20485;-76
2021/08/13 12:54:47;;;;;;;1.77;0.93;;;31.50;99.90;;;;;;5013382;28;20403;-75
2021/08/13 12:57:13;;;;;;;0.90;0.80;;;31.80;99.90;;;;;;4952662;28;20608;-75
2021/08/13 13:00:00;;;;;;;0.80;0.63;;;31.80;99.90;;;;;;5002342;28;20784;-75
2021/08/13 13:02:27;;;;;;;0.90;0.77;;;31.80;99.90;;;;;;5015778;28;20456;-75
2021/08/13 13:05:08;;;;;;;0.90;0.70;;;31.70;99.90;;;;;;5012931;28;20756;-76
2021/08/13 13:07:37;;;;;;;1.00;0.90;;;31.80;99.90;;;;;;5030092;28;20807;-76
2021/08/13 13:10:19;;;;;;;1.10;0.77;;;32.00;99.90;;;;;;5030471;28;20422;-76